Time;durP1;ratioP1;P1;durP2;ratioP2;P2;SDS_P1;SDS_P2;PMS_P1;PMS_P2;Temp;Humidity;BMP_temperature;BMP_pressure;BME280_temperature;BME280_humidity;BME280_pressure;Samples;Min_cycle;Max_cycle;Signal;HPM_P1;HPM_P2
2022/10/01 00:10:30;;;;;;;11.20;2.88;;;;;;;11.76;83.75;99107.25;5031493;28;20053;-45
2022/10/01 00:13:05;;;;;;;11.90;2.60;;;;;;;11.73;83.68;99119.13;5025842;28;20136;-45
2022/10/01 00:19:13;;;;;;;11.00;2.53;;;;;;;11.69;83.87;99118.31;5031827;28;20594;-44
2022/10/01 00:23:01;;;;;;;14.52;3.30;;;;;;;11.67;83.98;99127.00;5029691;28;20045;-45
2022/10/01 00:25:28;;;;;;;18.27;3.17;;;;;;;11.66;83.97;99124.63;5031401;28;20492;-46
2022/10/01 00:28:11;;;;;;;17.25;2.97;;;;;;;11.66;84.01;99124.63;5024933;28;20042;-45
2022/10/01 00:38:28;;;;;;;18.05;3.05;;;;;;;11.59;84.27;99136.50;5024438;28;20484;-47
2022/10/01 00:41:16;;;;;;;13.63;2.50;;;;;;;11.57;84.20;99133.28;5029826;28;20052;-45
2022/10/01 00:44:25;;;;;;;14.48;2.78;;;;;;;11.56;84.57;99137.25;5028390;28;20046;-46
2022/10/01 00:46:54;;;;;;;17.88;4.22;;;;;;;11.55;84.43;99133.69;5027106;28;20049;-46
2022/10/01 00:49:25;;;;;;;20.40;2.65;;;;;;;11.55;84.72;99135.66;5031118;28;20045;-45
2022/10/01 00:56:18;;;;;;;16.55;3.85;;;;;;;11.51;84.80;99151.50;5029206;28;20037;-45
2022/10/01 00:59:06;;;;;;;18.13;3.30;;;;;;;11.49;84.95;99143.56;5027680;28;20054;-47
2022/10/01 01:09:55;;;;;;;21.25;4.60;;;;;;;11.42;85.11;99148.28;5026972;28;20092;-45
2022/10/01 01:20:08;;;;;;;19.23;3.58;;;;;;;11.36;85.36;99167.25;5027006;28;21509;-46
2022/10/01 01:22:42;;;;;;;22.55;3.22;;;;;;;11.37;85.49;99176.38;5019823;28;20060;-46
2022/10/01 01:25:19;;;;;;;23.67;4.43;;;;;;;11.33;85.60;99179.13;5028223;28;20050;-46
2022/10/01 01:28:11;;;;;;;12.45;2.33;;;;;;;11.33;85.91;99184.66;5028130;28;20104;-47
2022/10/01 01:30:40;;;;;;;13.50;2.75;;;;;;;11.35;85.75;99170.44;5013006;28;20033;-45
2022/10/01 01:33:13;;;;;;;14.02;3.58;;;;;;;11.33;85.89;99184.66;5024244;28;20399;-47
2022/10/01 01:35:58;;;;;;;18.10;2.80;;;;;;;11.33;85.96;99179.13;5030598;28;20399;-44
2022/10/01 01:38:30;;;;;;;11.80;2.60;;;;;;;11.31;85.93;99187.03;5024892;28;20483;-45
2022/10/01 01:41:10;;;;;;;14.65;2.67;;;;;;;11.30;86.09;99182.69;5032006;28;20045;-45
2022/10/01 01:43:41;;;;;;;23.15;4.00;;;;;;;11.29;85.91;99188.59;5016777;28;20048;-48
2022/10/01 01:50:27;;;;;;;7.10;2.42;;;;;;;11.27;86.08;99194.53;5028585;28;20037;-47
2022/10/01 01:53:14;;;;;;;10.35;2.65;;;;;;;11.26;86.26;99203.22;5030459;28;20046;-45
2022/10/01 01:56:01;;;;;;;20.17;3.55;;;;;;;11.25;86.20;99216.28;5028107;28;20060;-47
2022/10/01 01:58:50;;;;;;;14.95;3.22;;;;;;;11.24;86.23;99209.16;5029283;28;20504;-45
2022/10/01 02:01:42;;;;;;;15.25;2.47;;;;;;;11.24;86.21;99211.94;5026325;28;20053;-46
2022/10/01 02:04:35;;;;;;;10.63;2.67;;;;;;;11.24;86.32;99209.16;5036190;28;20045;-45
2022/10/01 02:07:31;;;;;;;17.27;3.33;;;;;;;11.26;86.15;99215.09;5032027;28;20045;-46
2022/10/01 02:22:02;;;;;;;16.33;2.55;;;;;;;11.20;86.08;99218.63;5027526;28;20140;-45
2022/10/01 02:24:47;;;;;;;21.52;3.17;;;;;;;11.19;86.19;99226.16;5031884;28;20391;-47
2022/10/01 02:27:39;;;;;;;14.20;2.45;;;;;;;11.19;86.16;99237.22;5032325;28;20053;-45
2022/10/01 02:30:08;;;;;;;;;;;;;;;11.17;86.28;99236.81;4988545;28;20050;-47
2022/10/01 02:36:21;;;;;;;9.77;2.17;;;;;;;11.13;85.91;99249.84;5024683;28;20038;-45
2022/10/01 02:38:49;;;;;;;25.42;4.45;;;;;;;11.12;86.09;99251.00;5033811;28;20391;-45
2022/10/01 02:41:23;;;;;;;22.63;3.90;;;;;;;11.12;86.07;99256.53;5011628;28;20472;-49
2022/10/01 02:44:01;;;;;;;15.27;2.47;;;;;;;11.11;86.08;99254.97;5033727;28;20045;-45
2022/10/01 02:46:47;;;;;;;17.35;2.70;;;;;;;11.12;86.15;99255.78;5028243;28;20495;-44
2022/10/01 03:37:06;;;;;;;12.23;3.30;;;;;;;11.07;85.88;99286.59;519997;26;20924;-46
2022/10/01 03:39:53;;;;;;;12.35;2.20;;;;;;;11.07;85.78;99273.53;4961404;28;20054;-44
2022/10/01 03:46:58;;;;;;;27.85;5.05;;;;;;;11.10;85.85;99297.69;4949977;28;20043;-45
2022/10/01 03:49:28;;;;;;;18.45;3.33;;;;;;;11.11;85.68;99290.97;4956100;28;20046;-44
2022/10/01 03:51:55;;;;;;;13.57;2.67;;;;;;;11.15;86.02;99294.56;4962189;28;20047;-48
2022/10/01 03:54:22;;;;;;;12.98;2.80;;;;;;;11.16;85.76;99290.63;4963027;28;20043;-44
2022/10/01 03:56:49;;;;;;;10.57;2.38;;;;;;;11.18;85.83;99310.41;4960198;28;20074;-44
2022/10/01 03:59:16;;;;;;;15.50;2.38;;;;;;;11.18;85.53;99304.88;4955710;28;20035;-45
2022/10/01 04:01:43;;;;;;;13.38;3.33;;;;;;;11.18;85.87;99315.97;4954760;28;20039;-45
2022/10/01 04:12:07;;;;;;;16.17;2.97;;;;;;;11.07;85.66;99320.59;4953363;28;20421;-45
2022/10/01 04:18:16;;;;;;;14.27;2.92;;;;;;;11.03;85.78;99325.34;4949553;29;20050;-44
2022/10/01 04:40:15;;;;;;;23.23;2.92;;;;;;;10.88;85.73;99348.53;4981264;28;20488;-44
2022/10/01 04:42:42;;;;;;;13.13;2.72;;;;;;;10.86;85.85;99356.41;4969362;28;20043;-45
2022/10/01 04:45:10;;;;;;;12.00;3.65;;;;;;;10.85;86.03;99365.91;4968192;28;20057;-45
2022/10/01 04:51:47;;;;;;;10.32;3.88;;;;;;;10.80;86.07;99374.56;4961309;28;20051;-44
2022/10/01 04:54:34;;;;;;;16.92;3.20;;;;;;;10.78;86.20;99374.94;4971355;28;20047;-44
2022/10/01 04:57:21;;;;;;;12.25;2.15;;;;;;;10.78;86.31;99379.66;4971659;28;20046;-44
2022/10/01 05:04:26;;;;;;;17.58;2.60;;;;;;;10.73;86.49;99388.31;4970701;28;20133;-44
2022/10/01 05:07:13;;;;;;;15.32;2.67;;;;;;;10.73;86.50;99388.31;4960288;28;20042;-44
2022/10/01 05:10:00;;;;;;;15.75;2.20;;;;;;;10.71;86.56;99385.13;4971554;28;20047;-44
2022/10/01 05:16:38;;;;;;;18.63;2.30;;;;;;;10.69;86.66;99390.25;4971988;28;20485;-44
2022/10/01 05:19:06;;;;;;;18.38;3.47;;;;;;;10.69;86.81;99393.81;4972735;28;20031;-45
2022/10/01 05:25:45;;;;;;;12.30;2.95;;;;;;;10.69;86.95;99401.34;4970797;28;20105;-45
2022/10/01 05:35:55;;;;;;;20.13;3.72;;;;;;;10.66;86.91;99410.38;4986229;28;20085;-44
2022/10/01 05:38:42;;;;;;;22.77;2.78;;;;;;;10.65;87.02;99415.13;4973355;28;20051;-44
2022/10/01 05:48:43;;;;;;;17.48;3.13;;;;;;;10.66;87.38;99429.75;4957269;28;20046;-44
2022/10/01 05:51:15;;;;;;;13.07;2.40;;;;;;;10.65;87.43;99426.19;4955974;28;20067;-46
2022/10/01 05:53:41;;;;;;;16.95;3.45;;;;;;;10.66;87.36;99432.53;4955774;28;20043;-45
2022/10/01 05:56:15;;;;;;;11.40;2.38;;;;;;;10.65;87.51;99428.16;4953908;28;20134;-45
2022/10/01 05:58:41;;;;;;;12.75;2.65;;;;;;;10.65;87.58;99439.22;4940047;29;20066;-45
2022/10/01 06:01:08;;;;;;;13.80;2.35;;;;;;;10.66;87.66;99438.06;4950985;28;20054;-46
2022/10/01 06:03:35;;;;;;;22.95;5.75;;;;;;;10.67;87.77;99439.66;4938514;28;20086;-46
2022/10/01 06:06:04;;;;;;;10.40;1.95;;;;;;;10.66;87.91;99433.34;4955865;28;20047;-44
2022/10/01 06:08:34;;;;;;;16.00;2.55;;;;;;;10.67;87.95;99429.38;4964088;28;20062;-45
2022/10/01 06:14:43;;;;;;;12.70;2.20;;;;;;;10.69;88.08;99431.78;4960345;28;20070;-44
2022/10/01 06:20:51;;;;;;;14.02;2.97;;;;;;;10.72;87.79;99447.63;4953161;28;20031;-46
2022/10/01 06:23:18;;;;;;;13.68;2.85;;;;;;;10.72;87.95;99447.63;4960825;28;20394;-46
2022/10/01 06:25:45;;;;;;;12.40;2.20;;;;;;;10.72;88.01;99455.94;4953759;28;20408;-44
2022/10/01 06:28:13;;;;;;;13.80;2.40;;;;;;;10.72;88.03;99465.03;4958752;28;20042;-48
2022/10/01 06:38:32;;;;;;;18.73;3.13;;;;;;;10.73;88.20;99477.69;4962257;28;20042;-44
2022/10/01 06:41:19;;;;;;;13.38;3.13;;;;;;;10.74;88.11;99484.03;4955136;28;20047;-45
2022/10/01 06:44:06;;;;;;;13.93;2.22;;;;;;;10.76;88.27;99484.44;4955486;28;20051;-44
2022/10/01 06:46:53;;;;;;;13.23;1.98;;;;;;;10.77;88.29;99483.28;4951723;29;20417;-45
2022/10/01 06:49:40;;;;;;;14.43;2.22;;;;;;;10.79;88.49;99492.00;4953985;29;20087;-45
2022/10/01 06:52:48;;;;;;;18.60;3.22;;;;;;;10.81;88.42;99486.88;4953791;28;20134;-44
2022/10/01 06:55:36;;;;;;;14.45;2.13;;;;;;;10.85;88.61;99493.28;4956404;28;20047;-45
2022/10/01 06:58:26;;;;;;;14.15;2.30;;;;;;;10.88;88.64;99495.28;4954812;29;20055;-45
2022/10/01 07:01:15;;;;;;;16.40;2.85;;;;;;;10.90;88.53;99498.47;4955005;28;20055;-45
2022/10/01 07:07:47;;;;;;;17.58;2.45;;;;;;;10.93;88.59;99500.50;4955822;29;20045;-44
2022/10/01 07:10:36;;;;;;;9.13;2.53;;;;;;;10.96;88.78;99505.28;4955424;28;20409;-45
2022/10/01 07:13:23;;;;;;;10.95;1.90;;;;;;;10.97;88.73;99493.00;4944554;29;20039;-45
2022/10/01 07:16:10;;;;;;;10.32;2.97;;;;;;;11.00;88.69;99503.34;4948686;29;20044;-44
2022/10/01 07:27:03;;;;;;;16.65;2.40;;;;;;;11.11;88.70;99520.88;4956486;29;20035;-45
2022/10/01 07:29:33;;;;;;;16.60;3.17;;;;;;;11.13;88.62;99523.25;4943794;29;20083;-45
2022/10/01 07:32:00;;;;;;;17.35;3.20;;;;;;;11.16;88.42;99528.84;4953360;28;20051;-45
2022/10/01 07:41:58;;;;;;;23.05;4.30;;;;;;;11.30;88.31;99547.59;4970663;28;20393;-46
2022/10/01 08:03:39;;;;;;;15.45;1.95;;;;;;;11.56;87.71;99542.75;4974598;28;20489;-45
2022/10/01 08:10:12;;;;;;;13.40;2.45;;;;;;;11.74;87.63;99564.31;4968323;28;20038;-46
2022/10/01 08:12:41;;;;;;;13.13;2.10;;;;;;;11.80;87.39;99563.59;4973573;28;20055;-45
2022/10/01 08:18:58;;;;;;;15.77;3.28;;;;;;;11.95;87.16;99575.59;4971067;28;20457;-45
2022/10/01 08:21:28;;;;;;;29.33;8.57;;;;;;;11.97;86.71;99560.19;4971171;28;20039;-46
2022/10/01 08:23:55;;;;;;;22.50;3.70;;;;;;;12.00;86.71;99572.47;4973196;28;20053;-44
2022/10/01 08:26:21;;;;;;;8.52;2.67;;;;;;;12.04;86.52;99593.56;4972768;28;20038;-45
2022/10/01 08:33:06;;;;;;;17.08;2.28;;;;;;;12.25;86.80;99587.38;4974226;28;20042;-46
2022/10/01 08:39:23;;;;;;;5.70;2.88;;;;;;;12.68;85.87;99603.13;4972796;28;20031;-45
2022/10/01 08:42:07;;;;;;;13.57;3.97;;;;;;;12.78;85.69;99608.00;4978766;28;20086;-46
2022/10/01 08:44:42;;;;;;;20.65;2.65;;;;;;;12.95;85.68;99606.47;4972155;28;20565;-45
2022/10/01 08:47:17;;;;;;;13.20;2.47;;;;;;;13.01;85.00;99620.81;4973736;28;20043;-46
2022/10/01 08:57:52;;;;;;;17.00;4.32;;;;;;;13.48;84.75;99629.00;4977888;28;20051;-47
2022/10/01 09:00:43;;;;;;;14.00;2.50;;;;;;;13.52;84.31;99632.59;4973884;28;20120;-46
2022/10/01 09:03:31;;;;;;;8.55;2.15;;;;;;;13.55;84.02;99648.50;4966475;28;20421;-45
2022/10/01 09:06:21;;;;;;;11.18;1.90;;;;;;;13.54;83.60;99648.88;4976516;28;20043;-45
2022/10/01 09:09:35;;;;;;;12.23;2.00;;;;;;;13.48;83.13;99651.22;4976223;28;20039;-44
2022/10/01 09:16:35;;;;;;;9.32;1.90;;;;;;;13.52;83.24;99668.75;4969377;28;20039;-45
2022/10/01 09:31:57;;;;;;;6.63;3.22;;;;;;;13.58;82.03;99656.03;4969877;28;20035;-45
2022/10/01 09:34:45;;;;;;;15.20;4.30;;;;;;;13.67;81.78;99656.47;4967254;28;20046;-45
2022/10/01 09:37:50;;;;;;;15.32;2.63;;;;;;;13.67;81.36;99656.47;4971558;28;20058;-44
2022/10/01 09:40:48;;;;;;;10.45;2.97;;;;;;;13.70;81.43;99666.81;4968100;28;20055;-45
2022/10/01 09:43:30;;;;;;;7.43;1.70;;;;;;;13.74;81.12;99653.72;4968952;28;20046;-45
2022/10/01 09:57:46;;;;;;;7.60;2.08;;;;;;;14.13;81.78;99664.16;4974005;28;20385;-45
2022/10/01 10:00:36;;;;;;;7.95;1.63;;;;;;;14.22;81.94;99670.91;4975580;28;20485;-46
2022/10/01 10:03:27;;;;;;;9.45;2.00;;;;;;;14.34;82.07;99664.22;4969863;28;20043;-45
2022/10/01 10:06:14;;;;;;;6.93;1.80;;;;;;;14.50;82.35;99675.75;4969901;28;20050;-45
2022/10/01 10:09:01;;;;;;;16.42;2.03;;;;;;;14.71;82.12;99664.63;4975848;28;20496;-45
2022/10/01 10:15:56;;;;;;;8.48;1.65;;;;;;;15.68;79.79;99700.25;4973797;28;20039;-48
2022/10/01 10:18:50;;;;;;;8.73;2.30;;;;;;;16.37;76.99;99695.50;4975858;28;20035;-44
2022/10/01 10:21:50;;;;;;;10.35;1.73;;;;;;;17.07;73.81;99700.94;4966935;28;20097;-44
2022/10/01 10:24:37;;;;;;;9.57;1.73;;;;;;;17.97;69.84;99711.56;4967778;28;20066;-45
2022/10/01 10:27:28;;;;;;;8.77;1.88;;;;;;;18.73;65.92;99720.06;4974765;28;20047;-46
2022/10/01 10:30:16;;;;;;;10.90;1.77;;;;;;;19.20;63.74;99718.06;4974573;28;20058;-48
2022/10/01 10:37:06;;;;;;;11.52;1.85;;;;;;;18.62;63.07;99727.84;4968576;28;20038;-47
2022/10/01 10:39:39;;;;;;;10.98;2.20;;;;;;;18.04;63.62;99737.47;4974517;28;20043;-47
2022/10/01 10:42:07;;;;;;;9.88;2.10;;;;;;;17.40;64.60;99734.56;4943567;28;20055;-46
2022/10/01 10:44:38;;;;;;;8.95;2.10;;;;;;;16.85;66.11;99743.09;4956928;29;20501;-48
2022/10/01 10:47:10;;;;;;;9.73;1.83;;;;;;;16.46;66.92;99742.53;4955243;29;20049;-45
2022/10/01 10:49:46;;;;;;;8.35;2.30;;;;;;;16.88;66.65;99747.06;4956441;29;20067;-46
2022/10/01 10:57:27;;;;;;;15.85;2.72;;;;;;;16.82;65.65;99757.88;4948636;29;20047;-48
2022/10/01 11:00:18;;;;;;;10.52;2.03;;;;;;;16.33;66.86;99756.19;4920219;29;20066;-45
2022/10/01 11:03:05;;;;;;;8.95;1.98;;;;;;;16.19;68.00;99758.25;4949401;28;20409;-44
2022/10/01 11:05:55;;;;;;;5.18;1.70;;;;;;;16.52;67.59;99756.88;4957607;28;20051;-45
2022/10/01 11:08:42;;;;;;;7.03;1.50;;;;;;;16.59;67.75;99768.03;4957617;28;20406;-45
2022/10/01 11:11:42;;;;;;;9.60;1.77;;;;;;;16.60;67.94;99758.44;4965071;28;20050;-45
2022/10/01 11:14:48;;;;;;;7.88;1.30;;;;;;;16.55;67.89;99778.44;4955302;28;20066;-45
2022/10/01 11:18:12;;;;;;;9.07;1.88;;;;;;;16.31;67.81;99792.09;4953887;28;20126;-45
2022/10/01 11:21:38;;;;;;;8.55;1.98;;;;;;;16.17;68.00;99800.56;4960642;28;20050;-45
2022/10/01 11:24:31;;;;;;;10.35;1.55;;;;;;;15.99;68.05;99796.25;4951126;29;20051;-45
2022/10/01 11:27:35;;;;;;;8.05;1.65;;;;;;;15.87;68.08;99791.88;4944092;28;20046;-45
2022/10/01 11:34:15;;;;;;;10.82;1.50;;;;;;;15.78;68.50;99805.47;4958764;28;20090;-45
2022/10/01 11:37:19;;;;;;;4.53;1.20;;;;;;;15.70;68.48;99798.34;4939361;29;20509;-46
2022/10/01 11:39:53;;;;;;;5.57;0.95;;;;;;;15.71;68.69;99802.69;4962313;28;20061;-45
2022/10/01 11:46:28;;;;;;;8.25;1.23;;;;;;;15.81;67.93;99801.88;4955091;28;20504;-45
2022/10/01 11:49:13;;;;;;;14.90;3.15;;;;;;;15.84;67.41;99801.88;4970892;28;20042;-44
2022/10/01 11:52:39;;;;;;;6.57;2.05;;;;;;;15.89;66.95;99803.44;4940163;28;20054;-45
2022/10/01 11:59:23;;;;;;;7.45;1.65;;;;;;;16.06;66.65;99813.75;4948865;28;20054;-44
2022/10/01 12:02:44;;;;;;;10.40;1.98;;;;;;;15.96;65.99;99814.59;4950409;28;20054;-44
2022/10/01 12:05:17;;;;;;;5.43;1.75;;;;;;;15.94;66.21;99819.78;4955778;29;20137;-44
2022/10/01 12:11:38;;;;;;;4.22;1.25;;;;;;;16.03;66.17;99808.19;4949703;28;20043;-41
2022/10/01 12:24:44;;;;;;;10.38;1.65;;;;;;;16.66;65.59;99818.28;4954389;29;20070;-44
2022/10/01 12:27:48;;;;;;;9.57;1.40;;;;;;;16.60;64.38;99828.31;4952604;29;20094;-46
2022/10/01 12:30:19;;;;;;;7.90;1.67;;;;;;;16.51;64.21;99830.72;4952261;28;20044;-45
2022/10/01 12:33:38;;;;;;;4.25;1.17;;;;;;;16.52;64.13;99833.09;4955264;29;20044;-45
2022/10/01 12:36:28;;;;;;;8.80;1.80;;;;;;;16.55;64.18;99828.75;4942255;29;20392;-44
2022/10/01 12:39:28;;;;;;;7.97;2.25;;;;;;;16.66;63.87;99835.84;4953921;29;20047;-44
2022/10/01 12:50:41;;;;;;;8.73;1.27;;;;;;;16.70;63.33;99864.59;4971484;28;20123;-45
2022/10/01 12:53:17;;;;;;;9.23;1.52;;;;;;;16.65;63.41;99855.84;4960292;28;20035;-44
2022/10/01 12:56:03;;;;;;;6.95;1.30;;;;;;;16.65;63.14;99867.00;4971920;28;20121;-44
2022/10/01 12:58:50;;;;;;;10.82;1.80;;;;;;;16.70;62.77;99874.97;4974286;28;20129;-44
2022/10/01 13:09:42;;;;;;;7.90;1.30;;;;;;;16.52;62.90;99900.16;4974520;28;20046;-44
2022/10/01 13:16:38;;;;;;;7.68;1.20;;;;;;;16.96;62.75;99893.97;4965887;28;20043;-45
2022/10/01 13:24:17;;;;;;;7.88;1.48;;;;;;;17.33;62.13;99885.75;4963067;28;20489;-45
2022/10/01 13:26:56;;;;;;;8.07;1.75;;;;;;;17.44;62.26;99892.06;4972765;28;20070;-44
2022/10/01 13:29:38;;;;;;;10.10;2.83;;;;;;;17.57;62.03;99883.97;4971605;28;20071;-45
2022/10/01 13:35:59;;;;;;;5.75;1.17;;;;;;;17.56;62.03;99893.56;4971321;28;20039;-44
2022/10/01 13:38:28;;;;;;;5.50;1.50;;;;;;;17.77;62.28;99889.78;4973225;28;20051;-45
2022/10/01 13:41:14;;;;;;;5.50;1.20;;;;;;;18.08;61.81;99891.47;4973568;28;20524;-45
2022/10/01 13:43:57;;;;;;;6.65;1.48;;;;;;;18.31;60.89;99886.00;4976616;28;20043;-45
2022/10/01 13:47:18;;;;;;;9.45;1.48;;;;;;;18.42;59.60;99897.91;4973777;28;20046;-45
